createdAt,value
2019-02-18T00:00:34.156Z,3.90
2019-02-18T00:03:02.631Z,3.90
2019-02-18T00:05:31.112Z,3.86
2019-02-18T00:07:59.626Z,3.86
2019-02-18T00:10:28.081Z,3.83
2019-02-18T00:12:56.563Z,3.81
2019-02-18T00:15:25.067Z,3.76
2019-02-18T00:17:53.520Z,3.72
2019-02-18T00:20:21.992Z,3.72
2019-02-18T00:22:50.497Z,3.72
2019-02-18T00:25:18.964Z,3.72
2019-02-18T00:27:47.434Z,3.71
2019-02-18T00:30:15.960Z,3.70
2019-02-18T00:32:44.415Z,3.68
2019-02-18T00:35:12.893Z,3.68
2019-02-18T00:37:41.418Z,3.67
2019-02-18T00:40:10.476Z,3.67
2019-02-18T00:42:38.934Z,3.67
2019-02-18T00:45:10.615Z,3.67
2019-02-18T00:47:39.185Z,3.66
2019-02-18T00:50:09.688Z,3.65
2019-02-18T00:52:38.218Z,3.64
2019-02-18T00:55:07.817Z,3.61
2019-02-18T00:57:36.411Z,3.59
2019-02-18T01:00:13.860Z,3.58
2019-02-18T01:02:42.303Z,3.55
2019-02-18T01:05:11.199Z,3.55
2019-02-18T01:07:39.711Z,3.53
2019-02-18T01:10:11.127Z,3.51
2019-02-18T01:12:39.581Z,3.29
2019-02-18T01:15:14.003Z,3.41
2019-02-18T01:17:42.547Z,3.33
2019-02-18T01:20:12.948Z,3.22
2019-02-18T01:22:41.429Z,3.16
2019-02-18T01:25:12.270Z,3.09
2019-02-18T01:27:40.732Z,3.00
2019-02-18T01:30:12.424Z,2.94
2019-02-18T01:32:40.944Z,2.90
2019-02-18T01:35:09.473Z,2.87
2019-02-18T01:37:45.175Z,2.82
2019-02-18T01:40:13.822Z,2.76
2019-02-18T01:42:42.406Z,2.73
2019-02-18T01:45:13.210Z,2.63
2019-02-18T01:47:41.668Z,2.56
2019-02-18T01:50:12.424Z,2.49
2019-02-18T01:52:40.894Z,2.48
2019-02-18T01:55:10.895Z,2.45
2019-02-18T01:57:39.391Z,2.45
2019-02-18T02:00:15.646Z,2.44
2019-02-18T02:02:44.398Z,2.45
2019-02-18T02:05:14.616Z,2.44
2019-02-18T02:07:56.290Z,2.45
2019-02-18T02:10:21.850Z,2.46
2019-02-18T02:12:50.321Z,2.45
2019-02-18T02:15:22.116Z,2.46
2019-02-18T02:17:50.601Z,2.47
2019-02-18T02:20:19.123Z,2.48
2019-02-18T02:22:47.618Z,2.46
2019-02-18T02:25:16.097Z,2.47
2019-02-18T02:27:44.557Z,2.46
2019-02-18T02:30:13.127Z,2.46
2019-02-18T02:32:41.597Z,2.45
2019-02-18T02:35:10.059Z,2.44
2019-02-18T02:37:38.561Z,2.43
2019-02-18T02:40:09.474Z,2.44
2019-02-18T02:42:37.973Z,2.40
2019-02-18T02:45:07.875Z,2.36
2019-02-18T02:47:36.422Z,2.33
2019-02-18T02:50:06.613Z,2.28
2019-02-18T02:52:36.254Z,2.24
2019-02-18T02:55:06.067Z,2.21
2019-02-18T02:57:34.523Z,2.16
2019-02-18T03:00:03.193Z,2.14
2019-02-18T03:02:31.661Z,2.09
2019-02-18T03:05:00.374Z,2.07
2019-02-18T03:07:29.031Z,2.04
2019-02-18T03:09:57.509Z,2.03
2019-02-18T03:12:25.976Z,2.01
2019-02-18T03:14:54.461Z,2.00
2019-02-18T03:17:22.936Z,2.00
2019-02-18T03:19:51.405Z,1.99
2019-02-18T03:22:19.916Z,1.98
2019-02-18T03:25:17.196Z,1.97
2019-02-18T03:27:45.850Z,1.97
2019-02-18T03:30:42.096Z,1.95
2019-02-18T03:33:14.094Z,1.93
2019-02-18T03:35:42.552Z,1.91
2019-02-18T03:38:11.045Z,1.92
2019-02-18T03:40:39.567Z,1.90
2019-02-18T03:43:08.027Z,1.86
2019-02-18T03:45:36.562Z,1.86
2019-02-18T03:48:05.040Z,1.83
2019-02-18T03:50:33.509Z,1.81
2019-02-18T03:53:01.974Z,1.79
2019-02-18T03:55:32.284Z,1.77
2019-02-18T03:58:00.747Z,1.55
2019-02-18T04:00:29.218Z,1.72
2019-02-18T04:02:57.709Z,1.69
2019-02-18T04:05:26.168Z,1.65
2019-02-18T04:07:54.633Z,1.62
2019-02-18T04:10:23.136Z,1.57
2019-02-18T04:12:51.585Z,1.57
2019-02-18T04:15:20.045Z,1.54
2019-02-18T04:17:48.584Z,1.51
2019-02-18T04:20:17.047Z,1.46
2019-02-18T04:22:45.516Z,1.43
2019-02-18T04:25:14.023Z,1.40
2019-02-18T04:27:42.491Z,1.38
2019-02-18T04:30:13.655Z,1.35
2019-02-18T04:32:41.753Z,1.30
2019-02-18T04:35:13.224Z,1.28
2019-02-18T04:37:41.745Z,1.25
2019-02-18T04:40:10.283Z,1.24
2019-02-18T04:42:38.761Z,1.23
2019-02-18T04:45:09.669Z,1.21
2019-02-18T04:47:38.167Z,1.20
2019-02-18T04:50:08.175Z,1.21
2019-02-18T04:52:36.644Z,1.21
2019-02-18T04:55:09.964Z,1.21
2019-02-18T04:57:39.584Z,1.21
2019-02-18T05:00:10.060Z,1.27
2019-02-18T05:02:38.573Z,1.29
2019-02-18T05:05:09.354Z,1.28
2019-02-18T05:07:37.849Z,1.27
2019-02-18T05:10:09.152Z,1.26
2019-02-18T05:12:37.618Z,1.25
2019-02-18T05:15:07.830Z,1.24
2019-02-18T05:17:36.428Z,1.23
2019-02-18T05:20:07.116Z,1.20
2019-02-18T05:22:35.598Z,1.19
2019-02-18T05:25:06.396Z,1.18
2019-02-18T05:27:34.875Z,1.18
2019-02-18T05:30:03.969Z,1.16
2019-02-18T05:32:32.478Z,1.16
2019-02-18T05:35:01.005Z,1.15
2019-02-18T05:37:29.683Z,1.15
2019-02-18T05:39:58.204Z,1.16
2019-02-18T05:42:26.681Z,1.19
2019-02-18T05:44:55.155Z,1.21
2019-02-18T05:47:23.664Z,1.21
2019-02-18T05:49:52.197Z,1.20
2019-02-18T05:52:20.650Z,1.23
2019-02-18T05:54:50.296Z,1.24
2019-02-18T05:57:18.781Z,1.27
2019-02-18T05:59:47.579Z,1.28
2019-02-18T06:02:17.050Z,1.28
2019-02-18T06:04:45.503Z,1.30
2019-02-18T06:07:13.970Z,1.31
2019-02-18T06:09:42.484Z,1.31
2019-02-18T06:12:10.946Z,1.32
2019-02-18T06:14:39.435Z,1.32
2019-02-18T06:17:07.986Z,1.34
2019-02-18T06:19:36.447Z,1.35
2019-02-18T06:22:04.916Z,1.37
2019-02-18T06:24:33.440Z,1.41
2019-02-18T06:27:01.916Z,1.43
2019-02-18T06:29:30.465Z,1.46
2019-02-18T06:31:59.079Z,1.46
2019-02-18T06:34:27.588Z,1.28
2019-02-18T06:36:56.075Z,1.45
2019-02-18T06:39:24.566Z,1.45
2019-02-18T06:41:53.034Z,1.45
2019-02-18T06:44:23.144Z,1.46
2019-02-18T06:46:53.276Z,1.45
2019-02-18T06:49:21.769Z,1.45
2019-02-18T06:51:50.237Z,1.45
2019-02-18T06:54:18.746Z,1.45
2019-02-18T06:56:48.852Z,1.45
2019-02-18T06:59:21.881Z,1.46
2019-02-18T07:01:53.863Z,1.48
2019-02-18T07:04:26.796Z,1.51
2019-02-18T07:06:56.907Z,1.54
2019-02-18T07:09:33.097Z,1.57
2019-02-18T07:12:03.210Z,1.60
2019-02-18T07:14:31.657Z,1.64
2019-02-18T07:17:00.168Z,1.67
2019-02-18T07:19:28.628Z,1.69
2019-02-18T07:21:57.116Z,1.73
2019-02-18T07:24:25.611Z,1.78
2019-02-18T07:26:54.075Z,1.81
2019-02-18T07:29:22.544Z,1.85
2019-02-18T07:31:51.052Z,1.90
2019-02-18T07:34:19.519Z,1.97
2019-02-18T07:36:47.985Z,2.04
2019-02-18T07:39:16.481Z,2.11
2019-02-18T07:41:44.947Z,2.17
2019-02-18T07:44:13.409Z,2.24
2019-02-18T07:46:41.901Z,2.31
2019-02-18T07:49:10.365Z,2.41
2019-02-18T07:51:38.828Z,2.50
2019-02-18T07:54:07.336Z,2.60
2019-02-18T07:56:35.817Z,2.71
2019-02-18T07:59:04.283Z,2.82
2019-02-18T08:01:32.786Z,2.92
2019-02-18T08:04:02.347Z,3.01
2019-02-18T08:06:30.804Z,3.12
2019-02-18T08:08:59.297Z,3.21
2019-02-18T08:11:27.767Z,3.31
2019-02-18T08:13:56.235Z,3.40
2019-02-18T08:16:24.739Z,3.50
2019-02-18T08:18:53.212Z,3.59
2019-02-18T08:21:21.689Z,3.65
2019-02-18T08:23:59.369Z,3.88
2019-02-18T08:26:20.370Z,3.98
2019-02-18T08:28:48.913Z,4.07
2019-02-18T08:31:17.407Z,4.07
2019-02-18T08:33:45.879Z,4.16
2019-02-18T08:36:14.378Z,4.24
2019-02-18T08:38:42.861Z,4.42
2019-02-18T08:41:11.402Z,4.42
2019-02-18T08:43:39.891Z,4.49
2019-02-18T08:46:08.397Z,4.62
2019-02-18T08:48:36.858Z,4.62
2019-02-18T08:51:05.323Z,4.70
2019-02-18T08:53:33.839Z,4.89
2019-02-18T08:56:02.312Z,4.95
2019-02-18T08:58:30.792Z,4.95
2019-02-18T09:01:02.515Z,5.01
2019-02-18T09:03:29.465Z,5.16
2019-02-18T09:05:59.594Z,5.28
2019-02-18T09:08:28.109Z,5.28
2019-02-18T09:10:56.562Z,5.36
2019-02-18T09:13:25.023Z,5.46
2019-02-18T09:16:00.049Z,5.55
2019-02-18T09:18:23.716Z,5.61
2019-02-18T09:20:52.188Z,5.68
2019-02-18T09:23:22.413Z,5.74
2019-02-18T09:25:51.953Z,5.80
2019-02-18T09:28:20.407Z,5.89
2019-02-18T09:30:49.974Z,5.95
2019-02-18T09:33:20.876Z,6.02
2019-02-18T09:35:49.317Z,6.10
2019-02-18T09:38:25.062Z,6.16
2019-02-18T09:40:51.394Z,6.24
2019-02-18T09:43:18.198Z,6.31
2019-02-18T09:45:46.678Z,6.40
2019-02-18T09:48:15.155Z,6.46
2019-02-18T09:50:43.647Z,6.54
2019-02-18T09:53:12.117Z,6.62
2019-02-18T09:55:40.583Z,6.68
2019-02-18T09:58:09.074Z,6.78
2019-02-18T10:00:37.554Z,6.85
2019-02-18T10:03:06.014Z,6.93
2019-02-18T10:05:34.521Z,7.02
2019-02-18T10:08:03.122Z,7.09
2019-02-18T10:10:31.570Z,7.16
2019-02-18T10:13:00.090Z,7.24
2019-02-18T10:15:28.547Z,7.32
2019-02-18T10:17:57.019Z,7.41
2019-02-18T10:20:25.540Z,7.49
2019-02-18T10:22:54.000Z,7.56
2019-02-18T10:25:22.491Z,7.66
2019-02-18T10:27:50.958Z,7.75
2019-02-18T10:30:20.738Z,7.83
2019-02-18T10:32:49.353Z,7.91
2019-02-18T10:35:17.862Z,7.99
2019-02-18T10:37:54.761Z,8.06
2019-02-18T10:40:16.509Z,8.16
2019-02-18T10:42:45.008Z,8.26
2019-02-18T10:45:14.133Z,8.38
2019-02-18T10:47:42.603Z,8.47
2019-02-18T10:50:12.144Z,8.57
2019-02-18T10:52:40.678Z,8.66
2019-02-18T10:55:10.499Z,8.73
2019-02-18T10:57:39.279Z,8.80
2019-02-18T11:00:15.777Z,8.86
2019-02-18T11:02:44.955Z,8.93
2019-02-18T11:05:13.484Z,8.99
2019-02-18T11:07:42.902Z,9.06
2019-02-18T11:10:15.965Z,9.12
2019-02-18T11:12:44.428Z,9.19
2019-02-18T11:15:13.832Z,9.27
2019-02-18T11:17:42.703Z,9.36
2019-02-18T11:20:13.379Z,9.43
2019-02-18T11:22:41.834Z,9.50
2019-02-18T11:25:14.459Z,9.59
2019-02-18T11:27:42.914Z,9.68
2019-02-18T11:30:13.986Z,9.76
2019-02-18T11:32:43.118Z,9.83
2019-02-18T11:35:11.833Z,9.92
2019-02-18T11:37:40.362Z,9.98
2019-02-18T11:40:12.091Z,10.05
2019-02-18T11:42:40.559Z,10.11
2019-02-18T11:45:11.960Z,10.16
2019-02-18T11:47:40.464Z,10.24
2019-02-18T11:50:11.174Z,10.31
2019-02-18T11:52:39.639Z,10.37
2019-02-18T11:55:10.596Z,10.46
2019-02-18T11:57:39.065Z,10.54
2019-02-18T12:00:10.672Z,10.62
2019-02-18T12:02:39.165Z,10.69
2019-02-18T12:05:12.034Z,10.77
2019-02-18T12:07:40.574Z,10.84
2019-02-18T12:10:13.255Z,10.92
2019-02-18T12:12:42.441Z,11.00
2019-02-18T12:15:15.834Z,11.07
2019-02-18T12:17:44.306Z,11.12
2019-02-18T12:20:14.768Z,11.19
2019-02-18T12:22:43.283Z,11.24
2019-02-18T12:25:12.867Z,11.30
2019-02-18T12:27:41.739Z,11.35
2019-02-18T12:30:15.818Z,11.39
2019-02-18T12:32:44.427Z,11.43
2019-02-18T12:35:12.887Z,11.49
2019-02-18T12:37:41.461Z,11.55
2019-02-18T12:40:13.481Z,11.60
2019-02-18T12:42:42.592Z,11.65
2019-02-18T12:45:12.346Z,11.71
2019-02-18T12:47:40.960Z,11.74
2019-02-18T12:50:10.861Z,11.79
2019-02-18T12:52:39.430Z,11.86
2019-02-18T12:55:09.418Z,11.92
2019-02-18T12:57:38.166Z,11.95
2019-02-18T13:00:13.944Z,12.00
2019-02-18T13:02:44.798Z,12.04
2019-02-18T13:05:13.750Z,12.10
2019-02-18T13:07:42.312Z,12.14
2019-02-18T13:10:11.168Z,12.19
2019-02-18T13:12:40.006Z,12.26
2019-02-18T13:15:17.756Z,12.32
2019-02-18T13:17:46.226Z,12.23
2019-02-18T13:20:14.697Z,12.46
2019-02-18T13:22:43.197Z,12.50
2019-02-18T13:25:11.757Z,12.56
2019-02-18T13:27:40.294Z,12.62
2019-02-18T13:30:17.160Z,12.67
2019-02-18T13:32:45.694Z,12.71
2019-02-18T13:35:14.167Z,12.74
2019-02-18T13:37:42.674Z,12.79
2019-02-18T13:40:13.095Z,12.83
2019-02-18T13:42:42.043Z,12.86
2019-02-18T13:45:10.623Z,12.89
2019-02-18T13:47:39.094Z,12.90
2019-02-18T13:50:12.309Z,12.93
2019-02-18T13:52:40.833Z,12.96
2019-02-18T13:55:11.344Z,12.98
2019-02-18T13:57:40.195Z,13.01
2019-02-18T14:00:15.548Z,13.05
2019-02-18T14:02:44.012Z,13.06
2019-02-18T14:05:12.561Z,13.07
2019-02-18T14:07:41.051Z,13.08
2019-02-18T14:10:09.592Z,13.09
2019-02-18T14:12:38.337Z,13.09
2019-02-18T14:15:11.511Z,13.09
2019-02-18T14:17:40.302Z,13.11
2019-02-18T14:20:15.887Z,13.12
2019-02-18T14:22:44.356Z,13.12
2019-02-18T14:25:13.751Z,13.15
2019-02-18T14:27:42.328Z,13.16
2019-02-18T14:30:16.210Z,13.16
2019-02-18T14:32:44.749Z,13.18
2019-02-18T14:35:13.432Z,13.17
2019-02-18T14:37:41.967Z,13.18
2019-02-18T14:40:12.260Z,13.18
2019-02-18T14:42:40.830Z,13.18
2019-02-18T14:45:09.873Z,13.18
2019-02-18T14:47:38.422Z,13.17
2019-02-18T14:50:09.270Z,13.15
2019-02-18T14:52:37.744Z,13.14
2019-02-18T14:55:08.341Z,13.11
2019-02-18T14:57:36.909Z,13.09
2019-02-18T15:00:22.243Z,13.06
2019-02-18T15:02:54.459Z,13.03
2019-02-18T15:05:24.211Z,13.01
2019-02-18T15:07:52.673Z,12.96
2019-02-18T15:10:21.209Z,12.94
2019-02-18T15:12:49.668Z,12.91
2019-02-18T15:15:18.133Z,12.88
2019-02-18T15:17:46.676Z,12.86
2019-02-18T15:20:16.299Z,12.83
2019-02-18T15:22:44.766Z,12.80
2019-02-18T15:25:13.294Z,12.80
2019-02-18T15:27:41.851Z,12.75
2019-02-18T15:30:14.069Z,12.72
2019-02-18T15:32:42.573Z,12.68
2019-02-18T15:35:11.121Z,12.65
2019-02-18T15:37:39.670Z,12.61
2019-02-18T15:40:10.597Z,12.57
2019-02-18T15:42:42.343Z,12.51
2019-02-18T15:45:09.931Z,12.47
2019-02-18T15:47:38.525Z,12.43
2019-02-18T15:50:09.912Z,12.38
2019-02-18T15:52:38.371Z,12.33
2019-02-18T15:55:07.822Z,12.27
2019-02-18T15:57:36.374Z,12.23
2019-02-18T16:00:15.966Z,12.18
2019-02-18T16:02:44.508Z,12.13
2019-02-18T16:05:12.984Z,12.05
2019-02-18T16:07:41.479Z,11.99
2019-02-18T16:10:10.016Z,11.92
2019-02-18T16:12:38.485Z,11.86
2019-02-18T16:15:08.538Z,11.80
2019-02-18T16:17:37.024Z,11.73
2019-02-18T16:20:09.184Z,11.66
2019-02-18T16:22:38.667Z,11.60
2019-02-18T16:25:12.970Z,11.53
2019-02-18T16:27:41.447Z,11.45
2019-02-18T16:30:12.641Z,11.38
2019-02-18T16:32:41.379Z,11.31
2019-02-18T16:35:10.581Z,11.22
2019-02-18T16:37:39.367Z,11.13
2019-02-18T16:40:11.356Z,11.07
2019-02-18T16:42:39.829Z,10.98
2019-02-18T16:45:11.380Z,10.89
2019-02-18T16:47:39.846Z,10.80
2019-02-18T16:50:08.825Z,10.71
2019-02-18T16:52:37.341Z,10.64
2019-02-18T16:55:09.311Z,10.55
2019-02-18T16:57:38.268Z,10.47
2019-02-18T17:00:12.080Z,10.41
2019-02-18T17:02:40.553Z,10.32
2019-02-18T17:05:09.010Z,10.24
2019-02-18T17:07:37.503Z,10.16
2019-02-18T17:10:07.714Z,10.08
2019-02-18T17:12:36.173Z,10.00
2019-02-18T17:15:07.390Z,9.92
2019-02-18T17:17:35.871Z,9.84
2019-02-18T17:20:05.673Z,9.76
2019-02-18T17:22:34.254Z,9.69
2019-02-18T17:25:03.018Z,9.65
2019-02-18T17:27:31.494Z,9.58
2019-02-18T17:30:00.375Z,9.54
2019-02-18T17:32:28.819Z,9.48
2019-02-18T17:34:57.280Z,9.44
2019-02-18T17:37:25.774Z,9.40
2019-02-18T17:39:54.238Z,9.36
2019-02-18T17:42:22.877Z,9.32
2019-02-18T17:44:51.367Z,9.26
2019-02-18T17:47:20.093Z,9.20
2019-02-18T17:49:48.555Z,9.15
2019-02-18T17:52:17.061Z,9.11
2019-02-18T17:54:45.525Z,9.05
2019-02-18T17:57:13.991Z,9.01
2019-02-18T17:59:42.515Z,8.96
2019-02-18T18:02:11.156Z,8.91
2019-02-18T18:04:40.753Z,8.86
2019-02-18T18:07:09.205Z,8.81
2019-02-18T18:09:37.677Z,8.76
2019-02-18T18:12:06.162Z,8.71
2019-02-18T18:14:34.665Z,8.67
2019-02-18T18:17:03.134Z,8.61
2019-02-18T18:19:31.906Z,8.55
2019-02-18T18:22:00.395Z,8.50
2019-02-18T18:24:28.863Z,8.44
2019-02-18T18:26:57.620Z,8.38
2019-02-18T18:29:26.122Z,8.30
2019-02-18T18:31:54.569Z,8.26
2019-02-18T18:34:23.501Z,8.19
2019-02-18T18:36:51.987Z,8.14
2019-02-18T18:39:20.455Z,8.10
2019-02-18T18:41:48.933Z,8.04
2019-02-18T18:44:17.428Z,7.98
2019-02-18T18:46:45.907Z,7.91
2019-02-18T18:49:14.356Z,7.85
2019-02-18T18:51:42.860Z,7.76
2019-02-18T18:54:11.317Z,7.68
2019-02-18T18:56:39.774Z,7.59
2019-02-18T18:59:08.281Z,7.51
2019-02-18T19:01:36.751Z,7.46
2019-02-18T19:04:05.203Z,7.41
2019-02-18T19:06:34.917Z,7.36
2019-02-18T19:09:04.515Z,7.31
2019-02-18T19:11:32.982Z,7.26
2019-02-18T19:14:01.483Z,7.21
2019-02-18T19:16:29.940Z,7.17
2019-02-18T19:18:58.397Z,7.13
2019-02-18T19:21:26.903Z,7.06
2019-02-18T19:23:55.363Z,7.02
2019-02-18T19:26:23.838Z,6.97
2019-02-18T19:28:53.383Z,6.92
2019-02-18T19:31:21.846Z,6.89
2019-02-18T19:33:51.404Z,6.85
2019-02-18T19:36:19.977Z,6.80
2019-02-18T19:38:48.437Z,6.75
2019-02-18T19:41:16.905Z,6.69
2019-02-18T19:43:50.328Z,6.65
2019-02-18T19:46:15.582Z,6.60
2019-02-18T19:48:44.035Z,6.57
2019-02-18T19:51:12.546Z,6.52
2019-02-18T19:53:40.997Z,6.46
2019-02-18T19:56:09.460Z,6.40
2019-02-18T19:58:37.991Z,6.36
2019-02-18T20:01:06.514Z,6.32
2019-02-18T20:03:34.981Z,6.28
2019-02-18T20:06:03.657Z,6.22
2019-02-18T20:08:32.143Z,6.18
2019-02-18T20:11:00.602Z,6.13
2019-02-18T20:13:29.078Z,6.09
2019-02-18T20:15:57.544Z,6.05
2019-02-18T20:18:26.013Z,6.00
2019-02-18T20:20:54.693Z,5.98
2019-02-18T20:23:23.176Z,5.93
2019-02-18T20:25:51.648Z,5.90
2019-02-18T20:28:20.144Z,5.89
2019-02-18T20:30:48.869Z,5.87
2019-02-18T20:33:17.332Z,5.85
2019-02-18T20:35:46.308Z,5.82
2019-02-18T20:38:14.796Z,5.79
2019-02-18T20:40:43.271Z,5.77
2019-02-18T20:43:11.776Z,5.74
2019-02-18T20:45:40.302Z,5.73
2019-02-18T20:48:08.784Z,5.68
2019-02-18T20:50:37.280Z,5.66
2019-02-18T20:53:05.757Z,5.63
2019-02-18T20:55:34.310Z,5.62
2019-02-18T20:58:03.960Z,5.58
2019-02-18T21:00:32.576Z,5.57
2019-02-18T21:03:01.070Z,5.56
2019-02-18T21:05:29.598Z,5.53
2019-02-18T21:07:58.080Z,5.53
2019-02-18T21:10:26.577Z,5.51
2019-02-18T21:12:55.109Z,5.51
2019-02-18T21:15:23.599Z,5.46
2019-02-18T21:17:52.084Z,5.46
2019-02-18T21:20:20.605Z,5.49
2019-02-18T21:22:49.461Z,5.44
2019-02-18T21:25:17.941Z,5.46
2019-02-18T21:27:46.459Z,5.40
2019-02-18T21:30:16.961Z,5.40
2019-02-18T21:32:45.658Z,5.40
2019-02-18T21:35:14.234Z,5.37
2019-02-18T21:37:43.003Z,5.32
2019-02-18T21:40:12.152Z,5.30
2019-02-18T21:42:40.683Z,5.30
2019-02-18T21:45:14.012Z,5.29
2019-02-18T21:47:42.498Z,5.27
2019-02-18T21:50:11.663Z,5.25
2019-02-18T21:52:40.416Z,5.22
2019-02-18T21:55:10.526Z,5.22
2019-02-18T21:57:39.077Z,5.19
2019-02-18T22:00:12.365Z,5.11
2019-02-18T22:02:40.844Z,5.11
2019-02-18T22:05:09.433Z,5.08
2019-02-18T22:07:37.916Z,5.02
2019-02-18T22:10:08.455Z,5.00
2019-02-18T22:12:36.961Z,5.00
2019-02-18T22:15:07.574Z,5.00
2019-02-18T22:17:36.057Z,4.94
2019-02-18T22:20:06.339Z,4.86
2019-02-18T22:22:35.090Z,4.86
2019-02-18T22:25:04.244Z,4.88
2019-02-18T22:27:32.783Z,4.88
2019-02-18T22:30:01.253Z,4.83
2019-02-18T22:32:29.734Z,4.83
2019-02-18T22:34:59.607Z,4.78
2019-02-18T22:37:28.087Z,4.78
2019-02-18T22:39:56.575Z,4.75
2019-02-18T22:42:25.109Z,4.73
2019-02-18T22:44:53.598Z,4.60
2019-02-18T22:47:22.546Z,4.64
2019-02-18T22:49:51.146Z,4.64
2019-02-18T22:52:19.650Z,4.62
2019-02-18T22:54:48.513Z,4.62
2019-02-18T22:57:17.039Z,4.62
2019-02-18T22:59:45.523Z,4.60
2019-02-18T23:02:14.063Z,4.57
2019-02-18T23:04:43.455Z,4.54
2019-02-18T23:07:11.944Z,4.42
2019-02-18T23:09:40.439Z,4.38
2019-02-18T23:12:09.241Z,4.38
2019-02-18T23:14:37.726Z,4.28
2019-02-18T23:17:06.217Z,4.22
2019-02-18T23:19:34.720Z,4.19
2019-02-18T23:22:03.205Z,4.19
2019-02-18T23:24:31.704Z,4.14
2019-02-18T23:27:00.230Z,4.17
2019-02-18T23:29:29.194Z,4.16
2019-02-18T23:31:57.674Z,4.13
2019-02-18T23:34:26.208Z,4.22
2019-02-18T23:36:55.130Z,4.22
2019-02-18T23:39:23.616Z,4.26
2019-02-18T23:41:52.124Z,4.32
2019-02-18T23:44:20.599Z,4.28
2019-02-18T23:46:49.079Z,4.32
2019-02-18T23:49:17.602Z,4.27
2019-02-18T23:51:46.086Z,4.27
2019-02-18T23:54:14.556Z,4.31
2019-02-18T23:56:43.071Z,4.35
2019-02-18T23:59:11.559Z,4.35
